Aviation Digital Data Service (ADDS)

Output produced by METARs form (1756 UTC 20 December 2014)
found at http://aviationweather.gov/adds/metars/
 
KFRG 201753Z 30003KT 10SM OVC027 00/M06 A3026 RMK AO2 SLP248 T00001061 10000 21006 58013
KISP 201729Z 2018/2118 34004KT P6SM BKN025 
     FM210500 VRB03KT 6SM -SHSN SCT015 BKN025 
     FM211500 34005KT P6SM FEW015 BKN030
       
KJFK 201751Z 36005KT 10SM OVC028 01/M07 A3027 RMK AO2 SLP249 VCSH S T00111067 10011 20000 58017 $
KJFK 201729Z 2018/2124 35005KT P6SM BKN030 
     FM202200 VRB03KT P6SM BKN030 
     FM211500 35007KT P6SM SCT030 BKN060
       
KBDR 201752Z 00000KT 10SM OVC030 01/M06 A3027 RMK AO2 SLP249 T00111056 10011 21017 58005
KBDR 201729Z 2018/2118 01004KT P6SM BKN030 
     FM202200 VRB03KT P6SM OVC025 
     FM211500 01005KT P6SM FEW015 BKN030